• Join FlightAware (Why Join?)
  • Login
  • US Flag 
12:44PM EDT


 

Airport Tracker/Info


-or-


 

Live Flight TrackerFlight Track Log ✈ AFL150 ✈ 18-Jul-2013 ✈ UUEE / SVO - MUHA / HAV

Flight Track Log - Related Links

Times and Time Zones

All times are in EDT time to prevent confusion due to time zone crossing. See the AFL150 flight status page for this flight to view local times or setup timezone preferences in your user account.

Time Position Orientation Groundspeed Altitude Reporting Facility
EDT Latitude Longitude Course Direction KTS MPH feet Rate Location/Type
06:34AM 55.9640 37.3640 255° West 173 199 1,800  Level FlightAware
06:34AM 55.9610 37.3450 254° West 165 190 2,500 1,500 Climbing FlightAware
06:34AM 55.9560 37.3090 256° West 187 215 2,800 720 Climbing FlightAware
06:35AM 55.9490 37.2590 256° West 221 254 3,200 960 Climbing FlightAware
06:35AM 55.9430 37.2120 257° West 249 287 3,700 1,860 Climbing FlightAware
06:36AM 55.9460 37.1710 277° West 251 289 4,600 2,700 Climbing FlightAware
06:36AM 55.9520 37.1300 285° West 251 289 5,500 2,700 Climbing FlightAware
06:36AM 55.9550 37.0990 280° West 252 290 6,200 2,640 Climbing FlightAware
06:37AM 55.9620 37.0380 282° West 255 293 7,500 2,520 Climbing FlightAware
06:37AM 55.9660 36.9960 280° West 259 298 8,300 2,280 Climbing FlightAware
06:38AM 55.9720 36.9320 280° West 267 307 9,400 2,400 Climbing FlightAware
06:38AM 55.9790 36.8540 279° West 268 308 10,900 2,220 Climbing FlightAware
06:39AM 55.9950 36.7590 287° West 282 325 12,400 1,440 Climbing FlightAware
06:40AM 56.0210 36.6720 298° West 321 369 13,000 1,080 Climbing FlightAware
06:40AM 56.0550 36.5570 298° West 352 405 14,000 1,680 Climbing FlightAware
06:41AM 56.0850 36.4530 297° West 357 411 15,400 2,220 Climbing FlightAware
06:42AM 56.1190 36.3380 298° West 358 412 17,200 2,220 Climbing FlightAware
06:42AM 56.1470 36.2420 298° West 364 419 18,400 1,920 Climbing FlightAware
06:43AM 56.1780 36.1340 297° West 370 426 19,600 1,860 Climbing FlightAware
06:44AM 56.2090 36.0250 297° West 375 432 20,900 1,680 Climbing FlightAware
06:44AM 56.2450 35.9010 298° West 383 441 22,000 1,500 Climbing FlightAware
06:45AM 56.2690 35.8140 296° West 387 445 22,800 1,560 Climbing FlightAware
06:46AM 56.3060 35.6860 298° West 393 452 24,000 1,440 Climbing FlightAware
06:46AM 56.3400 35.5670 297° West 399 459 24,900 1,380 Climbing FlightAware
06:47AM 56.3780 35.4340 297° West 403 464 26,000 1,320 Climbing FlightAware
06:48AM 56.4180 35.3200 302° West 405 466 26,800 1,500 Climbing FlightAware
06:48AM 56.4780 35.2180 317° Northwest 401 461 28,100 1,380 Climbing FlightAware
06:49AM 56.5490 35.1920 349° North 413 475 28,800 1,020 Climbing FlightAware
06:50AM 56.6170 35.1790 354° North 415 478 29,400 960 Climbing FlightAware
06:50AM 56.6950 35.1640 354° North 420 483 30,000 1,200 Climbing FlightAware
06:51AM 56.7800 35.1490 354° North 412 474 31,100 1,200 Climbing FlightAware
06:52AM 56.8750 35.1310 354° North 413 475 31,900 960 Climbing FlightAware
06:53AM 56.9490 35.1180 355° North 411 473 32,600 960 Climbing FlightAware
06:53AM 57.0250 35.1030 354° North 411 473 33,200 960 Climbing FlightAware
06:54AM 57.1100 35.0870 354° North 407 468 34,000 540 Climbing FlightAware
06:55AM 57.1860 35.0730 354° North 419 482 34,000  Level FlightAware
06:55AM 57.2740 35.0560 354° North 428 493 34,000  Level FlightAware
06:56AM 57.3530 35.0410 354° North 428 493 34,000  Level FlightAware
06:57AM 57.4480 35.0230 354° North 427 491 34,000  Level FlightAware
06:58AM 57.5390 35.0060 354° North 429 494 34,000  Level FlightAware
06:58AM 57.6090 34.9900 353° North 427 491 34,000  Level FlightAware
06:59AM 57.6850 34.9530 345° North 425 489 34,000  Level FlightAware
07:00AM 57.7480 34.9040 337° Northwest 422 486 34,000  Level FlightAware
07:00AM 57.8310 34.8100 329° Northwest 420 483 34,000  Level FlightAware
07:01AM 57.8850 34.7350 324° Northwest 420 483 34,000  Level FlightAware
07:02AM 57.9600 34.6320 324° Northwest 421 484 34,000  Level FlightAware
07:02AM 58.0230 34.5440 324° Northwest 421 484 34,000  Level FlightAware
07:03AM 58.0850 34.4570 323° Northwest 421 484 34,000  Level FlightAware
07:04AM 58.1470 34.3690 323° Northwest 423 487 34,000  Level FlightAware
07:04AM 58.1900 34.3060 322° Northwest 425 489 34,000  Level FlightAware
07:05AM 58.2620 34.1950 321° Northwest 426 490 34,000  Level FlightAware
07:06AM 58.3230 34.1010 321° Northwest 426 490 34,000  Level FlightAware
07:06AM 58.3720 34.0250 321° Northwest 426 490 34,000  Level FlightAware
07:07AM 58.4240 33.9460 322° Northwest 425 489 34,000  Level FlightAware
07:08AM 58.4870 33.8480 321° Northwest 425 489 34,000  Level FlightAware
07:08AM 58.5550 33.7440 321° Northwest 425 489 34,000  Level FlightAware
07:09AM 58.6190 33.6440 321° Northwest 426 490 34,000  Level FlightAware
07:10AM 58.6690 33.5640 320° Northwest 426 490 34,000  Level FlightAware
07:12AM 58.8570 33.2260 317° Northwest 426 490 34,000  Level FlightAware
07:13AM 58.9170 33.1100 315° West 425 489 34,000  Level FlightAware
07:13AM 58.9690 33.0070 314° West 425 489 34,000  Level FlightAware
07:14AM 59.0620 32.8270 315° West 427 491 34,000 60 Level FlightAware
07:15AM 59.1130 32.7250 314° West 425 489 34,100 480 Climbing FlightAware
07:16AM 59.1670 32.6180 315° West 421 484 34,700 660 Climbing FlightAware
07:16AM 59.2210 32.5100 314° West 424 488 35,000 480 Climbing FlightAware
07:17AM 59.2880 32.3760 314° West 428 493 35,400 600 Climbing FlightAware
07:18AM 59.3590 32.2330 314° West 429 494 35,900 420 Climbing FlightAware
07:18AM 59.4120 32.1210 313° West 425 489 36,000 60 Climbing FlightAware
07:19AM 59.4600 31.9810 304° West 425 489 36,000  Level FlightAware
07:21AM 59.5270 31.7080 296° West 426 490 36,000  Level FlightAware
07:22AM 59.5910 31.4320 295° West 426 490 36,000  Level FlightAware
07:24AM 59.6780 30.9920 292° West 433 498 36,000  Level FlightAware
07:24AM 59.6910 30.8850 284° West 436 502 36,000  Level FlightAware
07:25AM 59.6860 30.7190 267° West 437 503 36,000  Level FlightAware
07:26AM 59.6810 30.5430 267° West 439 505 36,000  Level FlightAware
07:26AM 59.6760 30.3790 267° West 441 507 36,000  Level FlightAware
07:27AM 59.6710 30.2400 266° West 443 510 36,000  Level FlightAware
07:28AM 59.6650 30.0550 266° West 445 512 36,000  Level FlightAware
07:28AM 59.6590 29.8990 266° West 445 512 36,000  Level FlightAware
07:29AM 59.6530 29.7340 266° West 444 511 36,000  Level FlightAware
07:30AM 59.6460 29.5520 266° West 443 510 36,000  Level FlightAware
07:30AM 59.6400 29.3900 266° West 444 511 36,000  Level FlightAware
07:31AM 59.6340 29.2450 265° West 444 511 36,000  Level FlightAware
07:32AM 59.6260 29.0630 265° West 438 504 36,000  Level FlightAware
07:32AM 59.6210 28.9290 266° West 433 498 36,000  Level FlightAware
07:33AM 59.6230 28.7590 271° West 425 489 36,000  Level FlightAware
07:34AM 59.6380 28.6030 281° West 424 488 36,000  Level FlightAware
07:34AM 59.6630 28.4300 286° West 424 488 36,000  Level FlightAware
07:35AM 59.6830 28.2930 286° West 424 488 36,000  Level FlightAware
07:36AM 59.7050 28.1370 286° West 424 488 36,000  Level FlightAware
07:37AM 59.7290 27.9670 286° West 425 489 36,000  Level FlightAware
07:37AM 59.7500 27.8170 286° West 427 491 36,000  Level FlightAware
07:38AM 59.7740 27.6450 286° West 431 496 36,000  Level FlightAware
07:39AM 59.7950 27.4940 286° West 433 498 36,000  Level FlightAware
07:39AM 59.8160 27.3390 285° West 433 498 36,000  Level FlightAware
07:40AM 59.8400 27.1560 285° West 434 499 36,000  Level FlightAware
07:42AM 59.8960 26.7360 285° West 432 497 36,000  Level FlightAware
07:43AM 59.9220 26.5370 285° West 433 498 36,000  Level FlightAware
07:44AM 59.9520 26.3260 286° West 429 494 36,000  Level FlightAware
07:44AM 59.9880 26.1710 295° West 430 495 36,000  Level FlightAware
07:45AM 60.0320 26.0350 303° West 430 495 36,000  Level FlightAware
07:46AM 60.0680 25.8960 297° West 432 497 36,000  Level FlightAware
07:46AM 60.1020 25.7670 298° West 431 496 36,000  Level FlightAware
07:47AM 60.1420 25.6160 298° West 429 494 36,000  Level FlightAware
07:48AM 60.1750 25.4900 298° West 428 493 36,000  Level FlightAware
07:48AM 60.2130 25.3480 298° West 427 491 36,000  Level FlightAware
07:49AM 60.2570 25.1780 298° West 427 491 36,000  Level FlightAware
07:50AM 60.2980 25.0190 298° West 428 493 36,000  Level FlightAware
07:51AM 60.3310 24.8900 297° West 429 494 36,000  Level FlightAware
07:51AM 60.3660 24.7540 298° West 430 495 36,000  Level FlightAware
07:52AM 60.4060 24.5970 297° West 428 493 36,000  Level FlightAware
07:53AM 60.4420 24.4540 297° West 428 493 36,000  Level FlightAware
07:53AM 60.4760 24.3180 297° West 429 494 36,000  Level FlightAware
07:54AM 60.5110 24.1790 297° West 429 494 36,000  Level FlightAware
07:55AM 60.5460 24.0360 297° West 429 494 36,000  Level FlightAware
07:55AM 60.5780 23.9050 296° West 428 493 36,000  Level FlightAware
07:56AM 60.6160 23.7480 296° West 429 494 36,000  Level FlightAware
07:57AM 60.6520 23.6000 296° West 428 493 36,000  Level FlightAware
07:57AM 60.6870 23.4550 296° West 422 486 36,000  Level FlightAware
07:58AM 60.7260 23.2940 296° West 421 484 36,000  Level FlightAware
07:59AM 60.7580 23.1580 296° West 422 486 36,000  Level FlightAware
07:59AM 60.7940 23.0060 296° West 424 488 36,000  Level FlightAware
08:02AM 60.8965 22.5395 294° West  Level Estimated
08:03AM 60.9426 22.3265 294° West  Level Estimated
08:03AM 60.9520 22.3260 294° West 425 489 36,000  Level FlightAware
08:03AM 61.0150 22.1270 303° West 433 498 36,000  Level FlightAware
08:04AM 61.1020 21.9530 316° Northwest 434 499 36,000  Level FlightAware
08:05AM 61.1600 21.8370 316° Northwest 427 491 36,000  Level FlightAware
08:06AM 61.2190 21.7200 316° Northwest 431 496 36,000  Level FlightAware
08:06AM 61.2750 21.6050 315° West 430 495 36,000  Level FlightAware
08:07AM 61.3380 21.4760 316° Northwest 433 498 36,000  Level FlightAware
08:08AM 61.3940 21.3600 315° West 434 499 36,000  Level FlightAware
08:09AM 61.4590 21.2250 315° West 436 502 36,000  Level FlightAware
08:09AM 61.5080 21.1230 315° West 434 499 36,000  Level FlightAware
08:10AM 61.5670 21.0000 315° West 437 503 36,000  Level FlightAware
08:11AM 61.6240 20.8800 315° West 439 505 36,000  Level FlightAware
08:11AM 61.6610 20.8020 315° West 441 507 36,000  Level FlightAware
08:12AM 61.7390 20.6340 314° West 439 505 36,000  Level FlightAware
08:13AM 61.8040 20.4950 315° West 443 510 36,000  Level FlightAware
08:13AM 61.8630 20.3670 314° West 443 510 36,000  Level FlightAware
08:14AM 61.9180 20.2480 315° West 440 506 36,000  Level FlightAware
08:15AM 61.9780 20.1170 314° West 442 509 36,000  Level FlightAware
08:15AM 62.0420 19.9760 314° West 442 509 36,000  Level FlightAware
08:16AM 62.1000 19.8490 314° West 442 509 36,000  Level FlightAware
08:17AM 62.1570 19.7210 314° West 445 512 36,000  Level FlightAware
08:17AM 62.2150 19.5900 314° West 447 514 36,000  Level FlightAware
08:18AM 62.2790 19.4470 314° West 447 514 36,000  Level FlightAware
08:19AM 62.3430 19.3030 314° West 449 517 36,000  Level FlightAware
08:20AM 62.4420 19.0770 313° West 447 514 36,000  Level FlightAware
08:21AM 62.5430 18.8410 313° West 448 516 36,000  Level FlightAware
08:22AM 62.6000 18.7080 313° West 451 519 36,000  Level FlightAware
08:23AM 62.6640 18.5590 313° West 453 521 36,000  Level FlightAware
08:24AM 62.7610 18.3300 313° West 454 522 36,000  Level FlightAware
08:25AM 62.8450 18.1300 313° West 454 522 36,000  Level FlightAware
08:26AM 62.9120 17.9680 312° West 455 524 36,000  Level FlightAware
08:26AM 62.9810 17.8010 312° West 455 524 36,000  Level FlightAware
08:27AM 63.0260 17.6910 312° West 453 521 36,000  Level FlightAware
08:28AM 63.0870 17.5410 312° West 454 522 36,000  Level FlightAware
08:28AM 63.1370 17.4180 312° West 455 524 36,000  Level FlightAware
08:29AM 63.1930 17.2770 311° West 453 521 36,000  Level FlightAware
08:30AM 63.2600 17.1110 312° West 452 520 36,000  Level FlightAware
08:30AM 63.3200 16.9580 311° West 454 522 36,000  Level FlightAware
08:31AM 63.3720 16.8260 311° West 454 522 36,000  Level FlightAware
08:32AM 63.4330 16.6710 311° West 452 520 36,000  Level FlightAware
08:32AM 63.4830 16.5430 311° West 451 519 36,000  Level FlightAware
08:33AM 63.5380 16.4020 311° West 450 518 36,000  Level FlightAware
08:34AM 63.5960 16.2510 311° West 448 516 36,000  Level FlightAware
08:35AM 63.6560 16.0930 311° West 447 514 36,000  Level FlightAware
08:35AM 63.7090 15.9520 310° West 446 513 36,000  Level FlightAware
08:36AM 63.7630 15.8090 311° West 447 514 36,000  Level FlightAware
08:37AM 63.8220 15.6520 310° West 449 517 36,000  Level FlightAware
08:37AM 63.8690 15.5230 310° West 450 518 36,000  Level FlightAware
08:38AM 63.9230 15.3790 311° West 450 518 36,000  Level FlightAware
08:39AM 63.9790 15.2260 310° West 450 518 36,000  Level FlightAware
08:39AM 64.0300 15.0860 310° West 451 519 36,000  Level FlightAware
08:41AM 64.1540 14.7410 310° West 452 520 36,000  Level FlightAware
08:42AM 64.2320 14.5210 309° West 451 519 36,000  Level FlightAware
08:42AM 64.2850 14.3710 309° West 452 520 36,000  Level FlightAware
08:44AM 64.3720 14.1220 309° West 452 520 36,000  Level FlightAware
08:45AM 64.4380 13.9340 309° West 451 519 36,000  Level FlightAware
08:45AM 64.5060 13.7340 308° West 441 507 36,000  Level FlightAware
08:46AM 64.5560 13.5890 309° West 441 507 36,000  Level FlightAware
08:47AM 64.6020 13.4510 308° West 440 506 36,000  Level FlightAware
08:47AM 64.6600 13.2810 309° West 440 506 36,000  Level FlightAware
08:48AM 64.7150 13.1160 308° West 440 506 36,000  Level FlightAware
08:49AM 64.7660 12.9590 307° West 442 509 36,000  Level FlightAware
08:49AM 64.8220 12.7910 308° West 444 511 36,000  Level FlightAware
08:50AM 64.8660 12.6560 308° West 442 509 36,000  Level FlightAware
08:51AM 64.9210 12.4870 308° West 441 507 36,000  Level FlightAware
08:52AM 64.9740 12.3200 307° West 442 509 36,000  Level FlightAware
08:52AM 65.0280 12.1510 307° West 441 507 36,000  Level FlightAware
08:53AM 65.0770 11.9970 307° West 442 509 36,000  Level FlightAware
08:54AM 65.1260 11.8430 307° West 443 510 36,000  Level FlightAware
08:54AM 65.1800 11.6710 307° West 444 511 36,000  Level FlightAware
08:55AM 65.2330 11.4980 306° West 443 510 36,000  Level FlightAware
08:56AM 65.2820 11.3410 307° West 440 506 36,000  Level FlightAware
08:56AM 65.3340 11.1710 306° West 440 506 36,000  Level FlightAware
08:57AM 65.3820 11.0140 306° West 438 504 36,000  Level FlightAware
08:58AM 65.4290 10.8570 306° West 436 502 36,000  Level FlightAware
08:58AM 65.4710 10.7170 306° West 434 499 36,000  Level FlightAware
08:59AM 65.5230 10.5430 306° West 433 498 36,000  Level FlightAware
09:01AM 65.6510 10.1030 305° West 434 499 36,000  Level FlightAware
09:02AM 65.7190 9.8680 305° West 436 502 36,000  Level FlightAware
09:03AM 65.7670 9.7000 305° West 437 503 36,000  Level FlightAware
09:03AM 65.7930 9.6110 305° West 437 503 36,000  Level FlightAware
09:05AM 65.8800 9.2930 304° West 437 503 36,000  Level FlightAware
09:05AM 65.9270 9.1260 305° West 437 503 36,000  Level FlightAware
09:06AM 65.9610 9.0000 304° West 437 503 36,000  Level FlightAware
09:07AM 66.0300 8.7480 304° West 437 503 36,000  Level FlightAware
09:08AM 66.0650 8.6210 304° West 437 503 36,000  Level FlightAware
09:09AM 66.1110 8.4530 304° West 437 503 36,000  Level FlightAware
09:09AM 66.1460 8.3260 304° West 437 503 36,000  Level FlightAware
09:10AM 66.1920 8.1560 304° West 437 503 36,000  Level FlightAware
09:12AM 66.2860 7.8100 304° West 437 503 36,000  Level FlightAware
09:12AM 66.3200 7.6820 304° West 437 503 36,000 -60 Level FlightAware
09:15AM 66.3631 7.0367 280° West  Level Estimated
09:16AM 66.3809 6.7574 279° West  Level Estimated
09:17AM 66.3982 6.4778 279° West  Level Estimated
09:18AM 66.4150 6.1978 279° West  Level Estimated
09:19AM 66.4313 5.9174 278° West  Level Estimated
09:20AM 66.4471 5.6367 278° West  Level Estimated
09:21AM 66.4623 5.3556 278° West  Level Estimated
09:22AM 66.4771 5.0741 278° West  Level Estimated
09:23AM 66.4914 4.7924 277° West  Level Estimated
09:24AM 66.5051 4.5103 277° West  Level Estimated
09:25AM 66.5184 4.2279 277° West  Level Estimated
09:26AM 66.5311 3.9453 277° West  Level Estimated
09:27AM 66.5434 3.6623 276° West  Level Estimated
09:28AM 66.5551 3.3791 276° West  Level Estimated
09:29AM 66.5663 3.0956 276° West  Level Estimated
09:30AM 66.5770 2.8119 276° West  Level Estimated
09:31AM 66.5872 2.5279 275° West  Level Estimated
09:32AM 66.5968 2.2437 275° West  Level Estimated
09:33AM 66.6060 1.9592 275° West  Level Estimated
09:34AM 66.6146 1.6746 275° West  Level Estimated
09:35AM 66.6228 1.3898 274° West  Level Estimated
09:36AM 66.6304 1.1048 274° West  Level Estimated
09:37AM 66.6375 0.8196 274° West  Level Estimated
09:38AM 66.6441 0.5343 273° West  Level Estimated
09:39AM 66.6501 0.2488 273° West  Level Estimated
09:40AM 66.6557 -0.0368 273° West  Level Estimated
09:41AM 66.6607 -0.3225 273° West  Level Estimated
09:42AM 66.6652 -0.6084 272° West  Level Estimated
09:43AM 66.6692 -0.8943 272° West  Level Estimated
09:44AM 66.6726 -1.1803 272° West  Level Estimated
09:45AM 66.6756 -1.4664 272° West  Level Estimated
09:46AM 66.6780 -1.7526 271° West  Level Estimated
09:47AM 66.6799 -2.0388 271° West  Level Estimated
09:48AM 66.6813 -2.3250 271° West  Level Estimated
09:49AM 66.6822 -2.6113 271° West  Level Estimated
09:50AM 66.6825 -2.8976 270° West  Level Estimated
09:51AM 66.6824 -3.1839 270° West  Level Estimated
09:52AM 66.6817 -3.4702 270° West  Level Estimated
09:53AM 66.6805 -3.7564 270° West  Level Estimated
09:54AM 66.6787 -4.0427 269° West  Level Estimated
09:55AM 66.6765 -4.3288 269° West  Level Estimated
09:56AM 66.6737 -4.6150 269° West  Level Estimated
09:57AM 66.6704 -4.9010 268° West  Level Estimated
09:58AM 66.6666 -5.1870 268° West  Level Estimated
09:59AM 66.6623 -5.4728 268° West  Level Estimated
10:00AM 66.6574 -5.7586 268° West  Level Estimated
10:01AM 66.6521 -6.0443 267° West  Level Estimated
10:02AM 66.6462 -6.3298 267° West  Level Estimated
10:03AM 66.6398 -6.6152 267° West  Level Estimated
10:04AM 66.6329 -6.9004 267° West  Level Estimated
10:05AM 66.6254 -7.1854 266° West  Level Estimated
10:06AM 66.6175 -7.4703 266° West  Level Estimated
10:07AM 66.6090 -7.7550 266° West  Level Estimated
10:08AM 66.6000 -8.0395 266° West  Level Estimated
10:09AM 66.5905 -8.3238 265° West  Level Estimated
10:10AM 66.5805 -8.6078 265° West  Level Estimated
10:11AM 66.5700 -8.8917 265° West  Level Estimated
10:12AM 66.5590 -9.1752 265° West  Level Estimated
10:13AM 66.5474 -9.4586 264° West  Level Estimated
10:14AM 66.5353 -9.7416 264° West  Level Estimated
10:15AM 66.5228 -10.0244 264° West  Level Estimated
10:16AM 66.5097 -10.3069 264° West  Level Estimated
10:17AM 66.4961 -10.5890 263° West  Level Estimated
10:18AM 66.4820 -10.8709 263° West  Level Estimated
10:19AM 66.4674 -11.1524 263° West  Level Estimated
10:20AM 66.4523 -11.4336 262° West  Level Estimated
10:21AM 66.4367 -11.7145 262° West  Level Estimated
10:22AM 66.4206 -11.9950 262° West  Level Estimated
10:23AM 66.4039 -12.2751 262° West  Level Estimated
10:24AM 66.3868 -12.5549 261° West  Level Estimated
10:25AM 66.3692 -12.8343 261° West  Level Estimated
10:26AM 66.3511 -13.1132 261° West  Level Estimated
10:27AM 66.3325 -13.3918 261° West  Level Estimated
10:28AM 66.3133 -13.6699 260° West  Level Estimated
10:29AM 66.2937 -13.9476 260° West  Level Estimated
10:30AM 66.2736 -14.2249 260° West  Level Estimated
10:31AM 66.2530 -14.5018 260° West  Level Estimated
10:32AM 66.2319 -14.7781 259° West  Level Estimated
10:33AM 66.2104 -15.0540 259° West  Level Estimated
10:34AM 66.1883 -15.3295 259° West  Level Estimated
10:35AM 66.1657 -15.6044 259° West  Level Estimated
10:36AM 66.1427 -15.8789 258° West  Level Estimated
10:37AM 66.1191 -16.1528 258° West  Level Estimated
10:38AM 66.0951 -16.4262 258° West  Level Estimated
10:39AM 66.0706 -16.6991 258° West  Level Estimated
10:40AM 66.0456 -16.9715 257° West  Level Estimated
10:41AM 66.0202 -17.2434 257° West  Level Estimated
10:42AM 65.9942 -17.5147 257° West  Level Estimated
10:43AM 65.9678 -17.7854 257° West  Level Estimated
10:44AM 65.9409 -18.0556 256° West  Level Estimated
10:45AM 65.9136 -18.3252 256° West  Level Estimated
10:46AM 65.8857 -18.5942 256° West  Level Estimated
10:47AM 65.8574 -18.8626 256° West  Level Estimated
10:48AM 65.8287 -19.1304 255° West  Level Estimated
10:49AM 65.7994 -19.3977 255° West  Level Estimated
10:50AM 65.7697 -19.6643 255° West  Level Estimated
10:51AM 65.7396 -19.9303 255° West  Level Estimated
10:52AM 65.7089 -20.1957 254° West  Level Estimated
10:53AM 65.6778 -20.4604 254° West  Level Estimated
10:54AM 65.6463 -20.7245 254° West  Level Estimated
10:55AM 65.6143 -20.9880 254° West  Level Estimated
10:56AM 65.5818 -21.2508 253° West  Level Estimated
10:57AM 65.5489 -21.5129 253° West  Level Estimated
10:58AM 65.5156 -21.7744 253° West  Level Estimated
10:59AM 65.4818 -22.0352 253° West  Level Estimated
11:00AM 65.4475 -22.2953 253° West  Level Estimated
11:01AM 65.4128 -22.5548 252° West  Level Estimated
11:02AM 65.3776 -22.8135 252° West  Level Estimated
11:03AM 65.3420 -23.0716 252° West  Level Estimated
11:04AM 65.3060 -23.3289 252° West  Level Estimated
11:05AM 65.2696 -23.5856 251° West  Level Estimated
11:06AM 65.2327 -23.8415 251° West  Level Estimated
11:07AM 65.1953 -24.0968 251° West  Level Estimated
11:08AM 65.1576 -24.3512 251° West  Level Estimated
11:09AM 65.1194 -24.6050 250° West  Level Estimated
11:10AM 65.0807 -24.8581 250° West  Level Estimated
11:11AM 65.0417 -25.1104 250° West  Level Estimated
11:12AM 65.0022 -25.3619 250° West  Level Estimated
11:13AM 64.9623 -25.6127 250° West  Level Estimated
11:14AM 64.9220 -25.8628 249° West  Level Estimated
11:15AM 64.8813 -26.1121 249° West  Level Estimated
11:16AM 64.8401 -26.3606 249° West  Level Estimated
11:17AM 64.7986 -26.6084 249° West  Level Estimated
11:18AM 64.7566 -26.8554 248° West  Level Estimated
11:19AM 64.7142 -27.1017 248° West  Level Estimated
11:20AM 64.6714 -27.3472 248° West  Level Estimated
11:21AM 64.6283 -27.5919 248° West  Level Estimated
11:22AM 64.5846 -27.8358 247° West  Level Estimated
11:23AM 64.5406 -28.0789 247° West  Level Estimated
11:24AM 64.4962 -28.3213 247° West  Level Estimated
11:25AM 64.4514 -28.5628 247° West  Level Estimated
11:26AM 64.4063 -28.8036 247° West  Level Estimated
11:27AM 64.3607 -29.0436 246° West  Level Estimated
11:28AM 64.3147 -29.2827 246° West  Level Estimated
11:29AM 64.2683 -29.5211 246° West  Level Estimated
11:30AM 64.2216 -29.7587 246° West  Level Estimated
11:31AM 64.1745 -29.9954 246° West  Level Estimated
11:32AM 64.1270 -30.2314 245° Southwest  Level Estimated
11:33AM 64.0790 -30.4665 245° Southwest  Level Estimated
11:34AM 64.0308 -30.7009 245° Southwest  Level Estimated
11:35AM 63.9821 -30.9344 245° Southwest  Level Estimated
11:36AM 63.9331 -31.1671 244° Southwest  Level Estimated
11:37AM 63.8800 -31.4165 244° Southwest  Level Estimated
11:38AM 63.8264 -31.6649 244° Southwest  Level Estimated
11:39AM 63.7724 -31.9123 244° Southwest  Level Estimated
11:40AM 63.7180 -32.1588 244° Southwest  Level Estimated
11:41AM 63.6632 -32.4044 243° Southwest  Level Estimated
11:42AM 63.6079 -32.6489 243° Southwest  Level Estimated
11:43AM 63.5523 -32.8926 243° Southwest  Level Estimated
11:44AM 63.4962 -33.1353 243° Southwest  Level Estimated
11:45AM 63.4397 -33.3770 242° Southwest  Level Estimated
11:46AM 63.3829 -33.6178 242° Southwest  Level Estimated
11:47AM 63.3256 -33.8576 242° Southwest  Level Estimated
11:48AM 63.2679 -34.0965 242° Southwest  Level Estimated
11:49AM 63.2098 -34.3344 242° Southwest  Level Estimated
11:50AM 63.1513 -34.5714 241° Southwest  Level Estimated
11:51AM 63.0924 -34.8074 241° Southwest  Level Estimated
11:52AM 63.0331 -35.0424 241° Southwest  Level Estimated
11:53AM 62.9735 -35.2765 241° Southwest  Level Estimated
11:54AM 62.9134 -35.5097 241° Southwest  Level Estimated
11:55AM 62.8530 -35.7418 240° Southwest  Level Estimated
11:56AM 62.7922 -35.9731 240° Southwest  Level Estimated
11:57AM 62.7310 -36.2033 240° Southwest  Level Estimated
11:58AM 62.6695 -36.4326 240° Southwest  Level Estimated
11:59AM 62.6075 -36.6610 240° Southwest  Level Estimated
12:00PM 62.5452 -36.8884 239° Southwest  Level Estimated
12:01PM 62.4826 -37.1148 239° Southwest  Level Estimated
12:02PM 62.4195 -37.3403 239° Southwest  Level Estimated
12:03PM 62.3561 -37.5649 239° Southwest  Level Estimated
12:04PM 62.2924 -37.7885 239° Southwest  Level Estimated
12:05PM 62.2283 -38.0111 238° Southwest  Level Estimated
12:06PM 62.1638 -38.2328 238° Southwest  Level Estimated
12:07PM 62.0990 -38.4536 238° Southwest  Level Estimated
12:08PM 62.0338 -38.6734 238° Southwest  Level Estimated
12:09PM 61.9683 -38.8923 238° Southwest  Level Estimated
12:10PM 61.9024 -39.1102 237° Southwest  Level Estimated
12:11PM 61.8362 -39.3272 237° Southwest  Level Estimated
12:12PM 61.7696 -39.5432 237° Southwest  Level Estimated
12:13PM 61.7028 -39.7584 237° Southwest  Level Estimated
12:14PM 61.6355 -39.9725 237° Southwest  Level Estimated
12:15PM 61.5680 -40.1858 236° Southwest  Level Estimated
12:16PM 61.5001 -40.3981 236° Southwest  Level Estimated
12:17PM 61.4319 -40.6095 236° Southwest  Level Estimated
12:18PM 61.3633 -40.8200 236° Southwest  Level Estimated
12:19PM 61.2945 -41.0295 236° Southwest  Level Estimated
12:20PM 61.2253 -41.2382 235° Southwest  Level Estimated
12:21PM 61.1558 -41.4459 235° Southwest  Level Estimated
12:22PM 61.0859 -41.6527 235° Southwest  Level Estimated
12:23PM 61.0158 -41.8586 235° Southwest  Level Estimated
12:24PM 60.9454 -42.0636 235° Southwest  Level Estimated
12:25PM 60.8746 -42.2676 235° Southwest  Level Estimated
12:26PM 60.8035 -42.4708 234° Southwest  Level Estimated
12:27PM 60.7322 -42.6730 234° Southwest  Level Estimated
12:28PM 60.6605 -42.8744 234° Southwest  Level Estimated
12:29PM 60.5885 -43.0749 234° Southwest  Level Estimated
12:30PM 60.5162 -43.2744 234° Southwest  Level Estimated
12:31PM 60.4436 -43.4731 234° Southwest  Level Estimated
12:32PM 60.3708 -43.6709 233° Southwest  Level Estimated
12:33PM 60.2976 -43.8678 233° Southwest  Level Estimated
12:33PM 62.3530 -49.0300 233° Southwest 452 520 34,000  Level FlightAware
12:34PM 60.2242 -44.0639 233° Southwest  Level Estimated
12:34PM 62.2660 -49.2700 232° Southwest 451 519 34,000  Level FlightAware
12:34PM 62.2080 -49.4340 233° Southwest 449 517 34,000  Level FlightAware
12:35PM 62.1580 -49.5720 232° Southwest 448 516 34,000  Level FlightAware
12:37PM 62.0610 -49.8360 232° Southwest 448 516 34,000  Level FlightAware
12:37PM 62.0200 -49.9480 232° Southwest 448 516 34,000  Level FlightAware
12:38PM 61.9540 -50.1290 232° Southwest 448 516 34,000  Level FlightAware
12:39PM 61.9140 -50.2380 232° Southwest 448 516 34,000  Level FlightAware
12:40PM 61.8320 -50.5200 238° Southwest 450 518 34,000  Level FlightAware
12:40PM 61.7820 -50.6720 235° Southwest 450 518 34,000  Level FlightAware
12:41PM 61.7330 -50.8190 235° Southwest 450 518 34,000  Level FlightAware
12:42PM 61.6640 -51.0230 235° Southwest 449 517 34,000  Level FlightAware
12:43PM 61.6130 -51.1700 234° Southwest 449 517 34,000  Level FlightAware
12:43PM 61.5760 -51.2780 234° Southwest 449 517 34,000  Level FlightAware
12:44PM 61.5280 -51.4160 234° Southwest 449 517 34,000  Level FlightAware
12:45PM 61.4890 -51.5300 234° Southwest 449 517 34,000  Level FlightAware
12:46PM 61.3930 -51.8220 236° Southwest 453 521 34,000  Level FlightAware
12:46PM 61.3550 -51.9300 234° Southwest 453 521 34,000  Level FlightAware
12:47PM 61.3040 -52.0770 234° Southwest 453 521 34,000  Level FlightAware
12:48PM 61.2650 -52.1880 234° Southwest 453 521 34,000  Level FlightAware
12:49PM 61.2140 -52.3350 234° Southwest 453 521 34,000  Level FlightAware
12:49PM 61.1750 -52.4450 234° Southwest 453 521 34,000  Level FlightAware
12:50PM 61.1360 -52.5560 234° Southwest 453 521 34,000  Level FlightAware
12:51PM 61.0860 -52.6990 234° Southwest 453 521 34,000  Level FlightAware
12:51PM 61.0480 -52.8060 234° Southwest 453 521 34,000  Level FlightAware
12:52PM 60.9980 -52.9490 234° Southwest 453 521 34,000  Level FlightAware
12:53PM 60.9580 -53.0620 234° Southwest 453 521 34,000  Level FlightAware
12:54PM 60.8970 -53.2340 234° Southwest 453 521 34,000  Level FlightAware
12:55PM 60.8320 -53.4170 234° Southwest 453 521 34,000  Level FlightAware
12:55PM 60.7950 -53.5240 235° Southwest 453 521 34,000  Level FlightAware
12:58PM 60.6203 -53.9825 232° Southwest  Level FlightAware Approximate
12:59PM 60.5449 -54.1775 232° Southwest  Level FlightAware Approximate
01:00PM 60.4693 -54.3716 232° Southwest  Level FlightAware Approximate
01:01PM 60.3934 -54.5648 232° Southwest  Level FlightAware Approximate
01:02PM 60.3172 -54.7571 231° Southwest  Level FlightAware Approximate
01:03PM 60.2407 -54.9484 231° Southwest  Level FlightAware Approximate
01:04PM 60.1640 -55.1389 231° Southwest  Level FlightAware Approximate
01:05PM 60.0872 -55.3278 231° Southwest  Level FlightAware Approximate
01:06PM 60.0103 -55.5159 231° Southwest  Level FlightAware Approximate
01:07PM 59.9330 -55.7030 231° Southwest  Level FlightAware Approximate
01:08PM 59.8555 -55.8893 230° Southwest  Level FlightAware Approximate
01:09PM 59.7777 -56.0747 230° Southwest  Level FlightAware Approximate
01:09PM 59.6167 -56.4167 229° Southwest 460 529 34,000  Level Gander Center
01:10PM 59.6996 -56.2592 230° Southwest  Level FlightAware Approximate
01:10PM 59.5167 -56.6167 225° Southwest 460 529 34,000  Level Gander Center
01:11PM 59.6213 -56.4429 230° Southwest  Level FlightAware Approximate
01:11PM 59.4500 -56.8000 234° Southwest 460 529 34,000  Level Gander Center
01:12PM 59.5428 -56.6257 230° Southwest  Level FlightAware Approximate
01:12PM 59.3667 -57.0000 231° Southwest 460 529 34,000  Level Gander Center
01:13PM 59.4639 -56.8077 230° Southwest  Level FlightAware Approximate
01:13PM 59.2667 -57.2000 226° Southwest 460 529 34,000  Level Gander Center
01:14PM 59.3849 -56.9888 229° Southwest  Level FlightAware Approximate
01:14PM 59.2000 -57.3833 235° Southwest 460 529 34,000  Level Gander Center
01:15PM 59.1000 -57.5500 221° Southwest 460 529 34,000  Level Gander Center
01:16PM 59.0167 -57.7500 231° Southwest 460 529 34,000  Level Gander Center
01:17PM 58.9500 -57.9167 232° Southwest 460 529 34,000  Level Gander Center
01:18PM 58.8667 -58.1167 231° Southwest 460 529 34,000  Level Gander Center
01:19PM 58.7667 -58.3333 228° Southwest 460 529 34,000  Level Gander Center
01:20PM 58.6833 -58.5000 226° Southwest 460 529 34,000  Level Gander Center
01:21PM 58.6167 -58.6833 235° Southwest 470 541 34,000  Level Gander Center
01:22PM 58.5167 -58.8833 226° Southwest 470 541 34,000  Level Gander Center
01:23PM 58.4333 -59.0500 226° Southwest 470 541 34,000  Level Gander Center
01:24PM 58.3333 -59.2500 226° Southwest 470 541 34,000  Level Gander Center
01:25PM 58.2500 -59.4167 227° Southwest 460 529 34,000  Level Gander Center
01:26PM 58.1833 -59.6000 235° Southwest 460 529 34,000  Level Gander Center
01:27PM 58.0833 -59.8000 227° Southwest 460 529 34,000  Level Gander Center
01:28PM 57.9833 -59.9667 221° Southwest 460 529 34,000  Level Gander Center
01:29PM 57.8833 -60.0833 212° Southwest 460 529 34,000  Level Gander Center
01:30PM 57.7667 -60.2167 211° Southwest 460 529 34,000  Level Gander Center
01:31PM 57.6667 -60.3500 216° Southwest 460 529 34,000  Level Gander Center
01:32PM 57.5500 -60.4667 208° Southwest 460 529 34,000  Level Gander Center
01:33PM 57.4500 -60.6000 216° Southwest 460 529 34,000  Level Gander Center
01:34PM 57.3333 -60.7333 212° Southwest 470 541 34,000  Level Gander Center
01:35PM 57.2333 -60.8833 219° Southwest 460 529 34,000  Level Gander Center
01:36PM 57.1167 -61.0000 209° Southwest 460 529 34,000  Level Gander Center
01:37PM 57.0000 -61.1333 212° Southwest 460 529 34,000  Level Gander Center
01:38PM 56.9000 -61.2500 213° Southwest 460 529 34,000  Level Gander Center
01:39PM 56.8000 -61.3667 213° Southwest 460 529 34,000  Level Gander Center
01:40PM 56.6833 -61.5333 218° Southwest 460 529 34,000  Level Gander Center
01:41PM 56.5667 -61.6167 201° Southwest 450 518 34,000  Level Gander Center
01:42PM 56.4667 -61.7333 213° Southwest 460 529 34,000  Level Gander Center
01:43PM 56.3500 -61.8500 209° Southwest 470 541 34,000  Level Gander Center
01:44PM 56.2333 -61.9500 205° Southwest 470 541 34,000  Level Gander Center
01:45PM 56.1167 -62.0667 209° Southwest 470 541 34,000  Level Gander Center
01:46PM 56.0000 -62.1833 209° Southwest 470 541 34,000  Level Gander Center
01:47PM 55.8833 -62.3000 209° Southwest 480 552 34,000  Level Gander Center
01:48PM 55.7667 -62.3833 202° Southwest 480 552 34,000  Level Gander Center
01:49PM 55.6333 -62.5000 206° Southwest 480 552 34,000  Level Gander Center
01:50PM 55.5167 -62.6167 210° Southwest 480 552 34,000  Level Gander Center
01:51PM 55.4167 -62.7000 205° Southwest 470 541 34,000  Level Gander Center
01:52PM 55.2833 -62.8000 203° Southwest 470 541 34,000  Level Gander Center
01:53PM 55.1667 -62.9167 210° Southwest 470 541 34,000  Level Gander Center
01:54PM 55.0500 -63.0000 202° Southwest 460 529 34,000  Level Gander Center
01:55PM 54.9333 -63.1167 210° Southwest 470 541 34,000  Level Gander Center
01:56PM 54.8167 -63.2333 210° Southwest 460 529 34,000  Level Gander Center
01:57PM 54.7000 -63.3000 198° South 470 541 34,000  Level Gander Center
01:58PM 54.5833 -63.4167 210° Southwest 460 529 34,000  Level Gander Center
01:59PM 54.4833 -63.5000 206° Southwest 460 529 34,000  Level Gander Center
02:00PM 54.3500 -63.6000 204° Southwest 470 541 34,000  Level Gander Center
02:01PM 54.2333 -63.7167 210° Southwest 470 541 34,000  Level Gander Center
02:02PM 54.1167 -63.8000 203° Southwest 470 541 34,000  Level Gander Center
02:03PM 54.0000 -63.9000 207° Southwest 470 541 34,000  Level Gander Center
02:04PM 53.8833 -63.9833 203° Southwest 470 541 34,000  Level Gander Center
02:05PM 53.7667 -64.0833 207° Southwest 470 541 34,000  Level Gander Center
02:06PM 53.6500 -64.1833 207° Southwest 470 541 34,000  Level Gander Center
02:07PM 53.5333 -64.2833 207° Southwest 470 541 34,000  Level Gander Center
02:08PM 53.4000 -64.4000 208° Southwest 470 541 34,000  Level Gander Center
02:09PM 53.3000 -64.5000 211° Southwest 460 529 34,000  Level Gander Center
02:10PM 53.1833 -64.6000 207° Southwest 470 541 34,000  Level Gander Center
02:11PM 53.0667 -64.6833 203° Southwest 470 541 34,000  Level Gander Center
02:12PM 52.9500 -64.8000 211° Southwest 470 541 34,000  Level Gander Center
02:13PM 52.8333 -64.9167 211° Southwest 470 541 34,000  Level Gander Center
02:14PM 52.7167 -65.0167 207° Southwest 470 541 34,000  Level Gander Center
02:15PM 52.6000 -65.1167 208° Southwest 470 541 34,000  Level Gander Center
02:16PM 52.5000 -65.1833 202° Southwest 470 541 34,000  Level Gander Center
02:17PM 52.3833 -65.3167 215° Southwest 470 541 34,000  Level Gander Center
02:18PM 52.2500 -65.4000 201° Southwest 470 541 34,000  Level Gander Center
02:19PM 52.1333 -65.5000 208° Southwest 470 541 34,000  Level Gander Center
02:20PM 52.0333 -65.5833 207° Southwest 470 541 34,000  Level Gander Center
02:21PM 51.9167 -65.7000 212° Southwest 470 541 34,000  Level Gander Center
02:21PM 51.8333 -65.7167 187° South 470 541 34,000  Level Moncton Center
02:22PM 51.7167 -65.7667 195° South 480 552 34,000  Level Moncton Center
02:23PM 51.5667 -65.8167 192° South 490 564 34,000  Level Moncton Center
02:24PM 51.4333 -65.8667 193° South 490 564 34,000  Level Moncton Center
02:25PM 51.3000 -65.9167 193° South 490 564 34,000  Level Moncton Center
02:26PM 51.1667 -65.9500 189° South 490 564 34,000  Level Moncton Center
02:27PM 51.0333 -66.0000 193° South 490 564 34,000  Level Moncton Center
02:28PM 50.9000 -66.0500 193° South 490 564 34,000  Level Moncton Center
02:29PM 50.7667 -66.0833 189° South 490 564 34,000  Level Moncton Center
02:30PM 50.6333 -66.1333 193° South 490 564 34,000  Level Moncton Center
02:31PM 50.5167 -66.1833 195° South 490 564 34,000  Level Moncton Center
02:32PM 50.3667 -66.2333 192° South 490 564 34,000  Level Moncton Center
02:33PM 50.2500 -66.2500 185° South 480 552 34,000  Level Moncton Center
02:34PM 50.1167 -66.3333 202° Southwest 480 552 34,000  Level Moncton Center
02:35PM 50.0000 -66.4000 200° South 470 541 34,000  Level Moncton Center
02:36PM 49.8667 -66.4833 202° Southwest 470 541 34,000  Level Moncton Center
02:37PM 49.7333 -66.5500 198° South 470 541 34,000  Level Moncton Center
02:38PM 49.6167 -66.6000 196° South 460 529 34,000  Level Moncton Center
02:39PM 49.5000 -66.6667 200° South 460 529 34,000  Level Moncton Center
02:40PM 49.3833 -66.7333 200° South 460 529 34,000  Level Moncton Center
02:42PM 49.2167 -66.8333 201° Southwest 460 529 34,000  Level Gander Center
02:42PM 49.1500 -66.8833 206° Southwest 460 529 34,000  Level Moncton Center
02:43PM 49.0333 -66.9333 196° South 460 529 34,000  Level Moncton Center
02:44PM 48.9000 -67.0000 198° South 460 529 34,000  Level Moncton Center
02:45PM 48.7667 -67.0667 198° South 460 529 34,000  Level Moncton Center
02:46PM 48.6500 -67.1333 201° Southwest 460 529 34,000  Level Moncton Center
02:52PM 47.9240 -67.5180 201° Southwest 461 531 34,000  Level FlightAware
02:53PM 47.8430 -67.5600 199° South 463 533 34,000  Level FlightAware
02:54PM 47.7660 -67.5990 199° South 464 534 34,000  Level FlightAware
02:55PM 47.6480 -67.6590 199° South 464 534 34,000  Level FlightAware
02:55PM 47.5620 -67.7020 199° South 460 529 34,000  Level FlightAware
02:56PM 47.4760 -67.7460 199° South 458 527 34,000  Level FlightAware
02:57PM 47.3950 -67.7870 199° South 459 528 34,000  Level FlightAware
02:57PM 47.3140 -67.8270 199° South 458 527 34,000  Level FlightAware
02:58PM 47.2270 -67.8710 199° South 457 526 34,000  Level FlightAware
02:59PM 47.1360 -67.9160 199° South 457 526 34,000  Level FlightAware
03:00PM 47.0560 -67.9560 199° South 456 525 34,000  Level FlightAware
03:00PM 46.9760 -67.9950 198° South 459 528 34,000  Level FlightAware
03:01PM 46.8990 -68.0330 199° South 455 524 34,000  Level FlightAware
03:02PM 46.7610 -68.1000 198° South 452 520 34,000  Level FlightAware
03:04PM 46.6550 -68.1450 196° South 457 526 34,000  Level FlightAware
03:04PM 46.4990 -68.2090 196° South 457 526 34,000  Level FlightAware
03:05PM 46.4120 -68.2450 196° South 451 519 34,000  Level FlightAware
03:06PM 46.3270 -68.2800 196° South 451 519 34,000  Level FlightAware
03:06PM 46.2350 -68.3180 196° South 454 522 34,000  Level FlightAware
03:07PM 46.1640 -68.3470 196° South 453 521 34,000  Level FlightAware
03:08PM 46.0540 -68.3920 196° South 459 528 34,000  Level FlightAware
03:08PM 45.9970 -68.4150 196° South 453 521 34,000  Level FlightAware
03:09PM 45.8890 -68.4590 196° South 464 534 34,000  Level FlightAware
03:10PM 45.7960 -68.4960 196° South 465 535 34,000  Level FlightAware
03:11PM 45.6810 -68.5420 196° South 465 535 34,000 60 Level FlightAware
03:12PM 45.5830 -68.5820 196° South 472 543 34,200 660 Climbing FlightAware
03:12PM 45.4910 -68.6190 196° South 473 544 34,900 1,080 Climbing FlightAware
03:13PM 45.4040 -68.6530 195° South 464 534 35,700 780 Climbing FlightAware
03:14PM 45.3210 -68.6860 196° South 461 531 36,000 180 Climbing FlightAware
03:14PM 45.2370 -68.7190 195° South 461 531 36,000  Level FlightAware
03:15PM 45.1440 -68.7560 196° South 460 529 36,000  Level FlightAware
03:16PM 45.0680 -68.7860 196° South 459 528 36,000  Level FlightAware
03:16PM 44.9920 -68.8150 195° South 458 527 36,000  Level FlightAware
03:17PM 44.9140 -68.8460 196° South 460 529 36,000  Level FlightAware
03:18PM 44.8220 -68.8880 198° South 455 524 36,000  Level FlightAware
03:18PM 44.7440 -68.9390 205° Southwest 447 514 36,000  Level FlightAware
03:19PM 44.6620 -68.9970 207° Southwest 447 514 36,000  Level FlightAware
03:20PM 44.5870 -69.0480 206° Southwest 449 517 36,000  Level FlightAware
03:21PM 44.5100 -69.1000 206° Southwest 450 518 36,000  Level FlightAware
03:21PM 44.4320 -69.1530 206° Southwest 453 521 36,000  Level FlightAware
03:22PM 44.3470 -69.2100 206° Southwest 454 522 36,000  Level FlightAware
03:23PM 44.2760 -69.2580 206° Southwest 457 526 36,000  Level FlightAware
03:23PM 44.1860 -69.3180 206° Southwest 460 529 36,000  Level FlightAware
03:24PM 44.1150 -69.3660 206° Southwest 463 533 36,000  Level FlightAware
03:25PM 44.0340 -69.4190 205° Southwest 464 534 36,000  Level FlightAware
03:25PM 43.9730 -69.4600 206° Southwest 464 534 36,000  Level FlightAware
03:26PM 43.8280 -69.5250 198° South 484 557 36,000  Level FlightAware
03:27PM 43.7270 -69.5550 192° South 484 557 36,000  Level FlightAware
03:28PM 43.6320 -69.5820 192° South 484 557 36,000  Level FlightAware
03:29PM 43.5160 -69.6150 192° South 476 548 36,000  Level FlightAware
03:30PM 43.3100 -69.6750 192° South 477 549 36,000  Level FlightAware
03:31PM 43.2210 -69.7000 192° South 477 549 36,000  Level FlightAware
03:32PM 43.1360 -69.7240 192° South 477 549 36,000  Level FlightAware
03:33PM 43.0440 -69.7510 192° South 478 550 36,000  Level FlightAware
03:33PM 42.9600 -69.7750 192° South 477 549 36,000  Level FlightAware
03:34PM 42.8710 -69.8000 192° South 477 549 36,000  Level FlightAware
03:35PM 42.7850 -69.8240 192° South 477 549 36,000  Level FlightAware
03:35PM 42.6890 -69.8510 192° South 477 549 36,000  Level FlightAware
03:36PM 42.5820 -69.8810 192° South 478 550 36,000  Level FlightAware
03:37PM 42.4650 -69.9140 192° South 475 547 36,000  Level FlightAware
03:37PM 42.3990 -69.9320 191° South 476 548 36,000  Level FlightAware
03:38PM 42.3120 -69.9560 192° South 474 545 36,000  Level FlightAware
03:39PM 42.2260 -69.9800 192° South 479 551 36,000  Level FlightAware
03:39PM 42.1500 -70.0060 194° South 476 548 36,000  Level FlightAware
03:40PM 42.0600 -70.0560 202° Southwest 471 542 36,000  Level FlightAware
03:41PM 41.9840 -70.1170 211° Southwest 467 537 36,000  Level FlightAware
03:42PM 41.9150 -70.1920 219° Southwest 466 536 36,000  Level FlightAware
03:42PM 41.8520 -70.2810 226° Southwest 458 527 36,000  Level FlightAware
03:43PM 41.7900 -70.3710 227° Southwest 459 528 36,000  Level FlightAware
03:44PM 41.7280 -70.4620 228° Southwest 460 529 36,000  Level FlightAware
03:44PM 41.6780 -70.5330 227° Southwest 461 531 36,000  Level FlightAware
03:46PM 41.5160 -70.7680 227° Southwest 471 542 36,000  Level FlightAware
03:47PM 41.4190 -70.9070 227° Southwest 473 544 36,000  Level FlightAware
03:48PM 41.3440 -71.0140 227° Southwest 474 545 36,000  Level FlightAware
03:49PM 41.2870 -71.1030 230° Southwest 465 535 36,000  Level FlightAware
03:49PM 41.2420 -71.1990 238° Southwest 465 535 36,000  Level FlightAware
03:50PM 41.2080 -71.3050 247° West 458 527 36,000  Level FlightAware
03:51PM 41.1680 -71.4480 250° West 461 531 36,000  Level FlightAware
03:52PM 41.1360 -71.5612 249° West 464 534 36,000  Level FlightAware ADS-B
03:52PM 41.1047 -71.6718 249° West 465 535 36,000  Level FlightAware ADS-B
03:53PM 41.0743 -71.7786 249° West 465 535 36,000  Level FlightAware ADS-B
03:54PM 41.0450 -71.8810 249° West 462 532 36,000  Level FlightAware ADS-B
03:54PM 41.0160 -71.9822 249° West 461 531 36,000  Level FlightAware ADS-B
03:55PM 40.9932 -72.0613 249° West 460 529 36,000  Level FlightAware ADS-B
03:55PM 40.9669 -72.1520 249° West 461 531 36,000  Level FlightAware ADS-B
03:56PM 40.9376 -72.2302 244° Southwest 461 531 36,000  Level FlightAware ADS-B
03:56PM 40.9028 -72.3018 237° Southwest 464 534 36,000  Level FlightAware ADS-B
03:57PM 40.8707 -72.3561 232° Southwest 466 536 36,000  Level FlightAware ADS-B
03:57PM 40.8370 -72.4043 227° Southwest 468 539 36,000  Level FlightAware ADS-B
03:58PM 40.7829 -72.4684 222° Southwest 470 541 36,000  Level FlightAware ADS-B
03:58PM 40.7259 -72.5358 222° Southwest 468 539 36,000  Level FlightAware ADS-B
03:59PM 40.6750 -72.5984 223° Southwest 467 537 36,000  Level FlightAware ADS-B
03:59PM 40.6180 -72.6660 222° Southwest 469 540 36,000  Level FlightAware
04:00PM 40.5929 -72.6946 221° Southwest 469 540 36,000  Level FlightAware ADS-B
04:01PM 40.4758 -72.8281 221° Southwest 469 540 36,000  Level FlightAware ADS-B
04:01PM 40.4070 -72.9060 221° Southwest 472 543 36,000  Level FlightAware
04:02PM 40.3853 -72.9312 221° Southwest 472 543 36,000  Level FlightAware ADS-B
04:02PM 40.3127 -73.0137 221° Southwest 471 542 36,000  Level FlightAware ADS-B
04:03PM 40.2559 -73.0781 221° Southwest 471 542 36,000  Level FlightAware ADS-B
04:04PM 40.2012 -73.1401 221° Southwest 471 542 36,000  Level FlightAware ADS-B
04:04PM 40.1483 -73.1998 221° Southwest 472 543 36,000  Level FlightAware ADS-B
04:05PM 40.0690 -73.2891 221° Southwest 473 544 36,000  Level FlightAware ADS-B
04:05PM 40.0107 -73.3544 221° Southwest 473 544 36,000  Level FlightAware ADS-B
04:06PM 39.9584 -73.4131 221° Southwest 472 543 36,000  Level FlightAware ADS-B
04:07PM 39.9078 -73.4695 221° Southwest 472 543 36,000  Level FlightAware ADS-B
04:07PM 39.8569 -73.5263 221° Southwest 473 544 36,000  Level FlightAware ADS-B
04:08PM 39.8055 -73.5836 221° Southwest 474 545 36,000  Level FlightAware ADS-B
04:08PM 39.7451 -73.6507 221° Southwest 474 545 36,000  Level FlightAware ADS-B
04:09PM 39.6896 -73.7122 220° Southwest 475 547 36,000  Level FlightAware ADS-B
04:09PM 39.6388 -73.7684 220° Southwest 475 547 36,000  Level FlightAware ADS-B
04:10PM 39.5854 -73.8273 220° Southwest 475 547 36,000  Level FlightAware ADS-B
04:10PM 39.5304 -73.8878 220° Southwest 475 547 36,000  Level FlightAware ADS-B
04:11PM 39.4757 -73.9480 220° Southwest 477 549 36,000  Level FlightAware ADS-B
04:11PM 39.4220 -74.0069 220° Southwest 476 548 36,000  Level FlightAware ADS-B
04:12PM 39.3658 -74.0683 220° Southwest 475 547 36,000  Level FlightAware ADS-B
04:12PM 39.3137 -74.1253 220° Southwest 475 547 36,000  Level FlightAware ADS-B
04:13PM 39.2178 -74.2295 220° Southwest 475 547 36,000  Level FlightAware ADS-B
04:14PM 39.1660 -74.2859 220° Southwest 475 547 36,000  Level FlightAware ADS-B
04:14PM 39.1118 -74.3445 220° Southwest 475 547 36,000  Level FlightAware ADS-B
04:15PM 39.0580 -74.4026 220° Southwest 475 547 36,000  Level FlightAware ADS-B
04:16PM 39.0030 -74.4620 220° Southwest 475 547 36,000  Level FlightAware
04:16PM 38.9849 -74.4815 220° Southwest 476 548 36,000  Level FlightAware ADS-B
04:16PM 38.9329 -74.5375 220° Southwest 474 545 36,000  Level FlightAware ADS-B
04:17PM 38.8805 -74.5937 220° Southwest 475 547 36,000  Level FlightAware ADS-B
04:17PM 38.8300 -74.6480 220° Southwest 469 540 36,000  Level FlightAware
04:18PM 38.7985 -74.6815 220° Southwest 476 548 36,000  Level FlightAware ADS-B
04:18PM 38.7476 -74.7358 220° Southwest 478 550 36,000  Level FlightAware ADS-B
04:19PM 38.6943 -74.7926 220° Southwest 478 550 36,000  Level FlightAware ADS-B
04:19PM 38.6348 -74.8559 220° Southwest 479 551 36,000  Level FlightAware ADS-B
04:20PM 38.5809 -74.9131 220° Southwest 480 552 36,000  Level FlightAware ADS-B
04:20PM 38.5242 -74.9732 220° Southwest 480 552 36,000  Level FlightAware ADS-B
04:21PM 38.4113 -75.0927 220° Southwest 479 551 36,000  Level FlightAware ADS-B
04:22PM 38.3596 -75.1471 220° Southwest 479 551 36,000  Level FlightAware ADS-B
04:22PM 38.3057 -75.2037 219° Southwest 478 550 36,000  Level FlightAware ADS-B
04:23PM 38.2240 -75.2893 219° Southwest 477 549 36,000  Level FlightAware ADS-B
04:24PM 38.1591 -75.3478 215° Southwest 477 549 36,000  Level FlightAware ADS-B
04:24PM 38.1425 -75.3590 208° Southwest 476 548 36,000  Level FlightAware ADS-B
04:24PM 38.0813 -75.4011 208° Southwest 477 549 36,000  Level FlightAware ADS-B
04:25PM 38.0223 -75.4420 209° Southwest 477 549 36,000  Level FlightAware ADS-B
04:26PM 37.9030 -75.5250 209° Southwest 478 550 36,000  Level FlightAware
04:27PM 37.8090 -75.5910 209° Southwest 477 549 36,000  Level FlightAware
04:27PM 37.7692 -75.6184 209° Southwest 478 550 36,000  Level FlightAware ADS-B
04:28PM 37.7102 -75.6594 209° Southwest 477 549 36,000  Level FlightAware ADS-B
04:28PM 37.6484 -75.7022 209° Southwest 477 549 36,000  Level FlightAware ADS-B
04:29PM 37.5823 -75.7479 209° Southwest 478 550 36,000  Level FlightAware ADS-B
04:30PM 37.4830 -75.8160 209° Southwest 477 549 36,000  Level FlightAware
04:30PM 37.4100 -75.8670 209° Southwest 476 548 36,000  Level FlightAware
04:31PM 37.3330 -75.9190 208° Southwest 476 548 36,000  Level FlightAware
04:32PM 37.2540 -75.9734 209° Southwest 477 549 36,000  Level FlightAware ADS-B
04:32PM 37.1939 -76.0145 209° Southwest 479 551 36,000  Level FlightAware ADS-B
04:33PM 37.1295 -76.0583 208° Southwest 480 552 36,000  Level FlightAware ADS-B
04:33PM 37.0686 -76.0997 208° Southwest 481 554 36,000  Level FlightAware ADS-B
04:34PM 37.0074 -76.1413 208° Southwest 481 554 36,000  Level FlightAware ADS-B
04:34PM 36.9366 -76.1893 208° Southwest 480 552 36,000  Level FlightAware ADS-B
04:35PM 36.8604 -76.2409 208° Southwest 480 552 36,000  Level FlightAware ADS-B
04:35PM 36.7996 -76.2818 208° Southwest 480 552 36,000  Level FlightAware ADS-B
04:36PM 36.6903 -76.3553 208° Southwest 480 552 36,000  Level FlightAware ADS-B
04:37PM 36.6330 -76.3940 208° Southwest 477 549 36,000  Level FlightAware
04:38PM 36.5510 -76.4490 208° Southwest 476 548 36,000  Level FlightAware
04:38PM 36.4560 -76.5120 208° Southwest 475 547 36,000  Level FlightAware
04:39PM 36.3790 -76.5630 208° Southwest 474 545 36,000  Level FlightAware
04:42PM 36.0640 -76.7710 208° Southwest 474 545 36,000  Level FlightAware
04:43PM 35.9670 -76.8360 208° Southwest 475 547 36,000  Level FlightAware
04:44PM 35.8380 -76.9210 208° Southwest 476 548 36,000  Level FlightAware
04:45PM 35.6717 -77.0239 208° Southwest 479 551 36,000  Level Washington Center
04:46PM 35.5475 -77.1083 209° Southwest 479 551 36,000  Level Washington Center
04:47PM 35.4319 -77.1828 208° Southwest 479 551 36,000  Level Washington Center
04:48PM 35.3139 -77.2592 208° Southwest 479 551 36,000  Level Washington Center
04:49PM 35.1983 -77.3331 208° Southwest 479 551 36,000  Level Washington Center
04:50PM 35.0781 -77.4117 208° Southwest 479 551 36,000  Level Washington Center
04:51PM 34.9622 -77.4853 208° Southwest 479 551 36,000  Level Washington Center
04:52PM 34.8442 -77.5608 208° Southwest 479 551 36,000  Level Washington Center
04:53PM 34.7406 -77.6342 210° Southwest 479 551 36,000  Level Washington Center
04:59PM 34.0290 -77.9680 210° Southwest 480 552 36,000  Level FlightAware
05:00PM 33.8460 -78.0210 194° South 478 550 36,000  Level FlightAware
05:01PM 33.7700 -78.0430 194° South 476 548 36,000  Level FlightAware
05:02PM 33.6840 -78.0680 194° South 475 547 36,000  Level FlightAware
05:03PM 33.5680 -78.1010 193° South 475 547 36,000  Level FlightAware
05:03PM 33.5660 -78.1010 180° South 475 547 36,000  Level FlightAware
05:04PM 33.3990 -78.1490 193° South 476 548 36,000  Level FlightAware
05:05PM 33.3170 -78.1720 193° South 476 548 36,000  Level FlightAware
05:05PM 33.2120 -78.2020 193° South 474 545 36,000  Level FlightAware
05:06PM 33.1070 -78.2320 193° South 473 544 36,000  Level FlightAware
05:07PM 33.0230 -78.2560 193° South 473 544 36,000  Level FlightAware
05:08PM 32.9170 -78.2860 193° South 474 545 36,000  Level FlightAware
05:08PM 32.8520 -78.3040 193° South 474 545 36,000  Level FlightAware
05:09PM 32.7610 -78.3300 194° South 473 544 36,000  Level FlightAware
05:10PM 32.6670 -78.3560 193° South 473 544 36,000  Level FlightAware
05:10PM 32.5600 -78.3860 193° South 475 547 36,000  Level FlightAware
05:11PM 32.4820 -78.4070 193° South 475 547 36,000  Level FlightAware
05:12PM 32.3780 -78.4370 194° South 476 548 36,000  Level FlightAware
05:13PM 32.2920 -78.4630 194° South 476 548 36,000  Level FlightAware
05:13PM 32.2040 -78.4880 194° South 476 548 36,000  Level FlightAware
05:14PM 32.2060 -78.4870 23° Northeast 475 547 36,000  Level FlightAware
05:15PM 32.1180 -78.5110 193° South 475 547 36,000  Level FlightAware
05:15PM 32.0510 -78.5290 193° South 475 547 36,000  Level FlightAware
05:16PM 31.9890 -78.5460 193° South 475 547 36,000  Level FlightAware
05:17PM 31.9050 -78.5690 193° South 475 547 36,000  Level FlightAware
05:17PM 31.8400 -78.5870 193° South 475 547 36,000  Level FlightAware
05:18PM 31.7530 -78.6100 193° South 475 547 36,000  Level FlightAware
05:19PM 31.6830 -78.6290 193° South 475 547 36,000  Level FlightAware
05:22PM 31.3380 -78.7230 193° South 475 547 36,000  Level FlightAware
05:22PM 31.2680 -78.7410 192° South 475 547 36,000  Level FlightAware
05:24PM 30.8567 -78.8781 192° South 475 547 36,000  Level Jacksonville Center
05:25PM 30.7261 -78.9103 192° South 467 537 36,000  Level Jacksonville Center
05:26PM 30.6089 -78.9444 194° South 480 552 36,000  Level Miami Center
05:27PM 30.4875 -78.9806 194° South 486 559 36,000  Level Miami Center
05:28PM 30.3556 -79.0236 196° South 480 552 36,000  Level Miami Center
05:29PM 30.2381 -79.0764 201° Southwest 474 545 36,000  Level Miami Center
05:30PM 30.1142 -79.1267 199° South 469 540 36,000  Level Miami Center
05:31PM 29.9861 -79.1886 203° Southwest 469 540 36,000  Level Miami Center
05:32PM 29.8686 -79.2364 199° South 464 534 36,000  Level Miami Center
05:33PM 29.7531 -79.2936 203° Southwest 457 526 36,000  Level Miami Center
05:34PM 29.6311 -79.3408 199° South 457 526 36,000  Level Miami Center
05:35PM 29.5156 -79.3956 202° Southwest 457 526 36,000  Level Miami Center
05:36PM 29.3978 -79.4428 199° South 457 526 36,000  Level Miami Center
05:37PM 29.2781 -79.4900 199° South 457 526 36,000  Level Miami Center
05:38PM 29.1603 -79.5417 201° Southwest 457 526 36,000  Level Miami Center
05:39PM 29.0406 -79.5817 196° South 452 520 36,000  Level Miami Center
05:40PM 28.9150 -79.6022 188° South 452 520 36,000  Level Miami Center
05:41PM 28.7917 -79.6253 189° South 452 520 36,000  Level Miami Center
05:42PM 28.6658 -79.6481 189° South 452 520 36,000  Level Miami Center
05:43PM 28.5383 -79.6686 188° South 457 526 36,000  Level Miami Center
05:49PM 27.7750 -79.8040 188° South 456 525 36,000  Level FlightAware
05:49PM 27.7080 -79.8150 188° South 456 525 36,000  Level FlightAware
05:50PM 27.6440 -79.8250 188° South 456 525 36,000  Level FlightAware
05:51PM 27.5320 -79.8470 190° South 456 525 36,000  Level FlightAware
05:51PM 27.4610 -79.8580 188° South 456 525 36,000  Level FlightAware
05:52PM 27.3500 -79.8780 189° South 454 522 36,000  Level FlightAware
05:53PM 27.2730 -79.8920 189° South 454 522 36,000  Level FlightAware
05:54PM 27.1790 -79.9080 189° South 455 524 36,000  Level FlightAware
05:54PM 27.0940 -79.9230 189° South 457 526 36,000  Level FlightAware
05:55PM 27.0010 -79.9390 189° South 452 520 36,000  Level FlightAware
05:56PM 26.9190 -79.9540 189° South 451 519 36,000  Level FlightAware
05:56PM 26.8290 -79.9690 188° South 450 518 36,000  Level FlightAware
05:57PM 26.7450 -79.9840 189° South 450 518 36,000  Level FlightAware
05:58PM 26.6560 -79.9990 189° South 450 518 36,000  Level FlightAware
05:58PM 26.5720 -80.0140 189° South 451 519 36,000  Level FlightAware
05:59PM 26.4820 -80.0290 188° South 452 520 36,000  Level FlightAware
06:00PM 26.3900 -80.0450 189° South 454 522 36,000  Level FlightAware
06:01PM 26.3190 -80.0740 200° South 451 519 36,000  Level FlightAware
06:01PM 26.2500 -80.1250 214° Southwest 449 517 36,000  Level FlightAware
06:02PM 26.1760 -80.1790 213° Southwest 451 519 36,000  Level FlightAware
06:03PM 26.1200 -80.2430 226° Southwest 441 507 36,000  Level FlightAware
06:03PM 26.0760 -80.2920 225° Southwest 443 510 36,000  Level FlightAware
06:04PM 26.0080 -80.3680 225° Southwest 451 519 36,000  Level FlightAware
06:04PM 25.9510 -80.4320 225° Southwest 449 517 36,000  Level FlightAware
06:05PM 25.8820 -80.5070 224° Southwest 455 524 36,000  Level FlightAware
06:06PM 25.8150 -80.5790 224° Southwest 451 519 36,000  Level FlightAware
06:07PM 25.7580 -80.6430 225° Southwest 448 516 36,000  Level FlightAware
06:07PM 25.6920 -80.7130 224° Southwest 446 513 36,000  Level FlightAware
06:08PM 25.6470 -80.7620 224° Southwest 441 507 36,000  Level FlightAware
06:09PM 25.5810 -80.8350 225° Southwest 447 514 36,000  Level FlightAware
06:09PM 25.5200 -80.9000 224° Southwest 449 517 36,000  Level FlightAware
06:10PM 25.4680 -80.9580 225° Southwest 454 522 36,000  Level FlightAware
06:11PM 25.3920 -81.0390 224° Southwest 452 520 36,000  Level FlightAware
06:12PM 25.3030 -81.1350 224° Southwest 439 505 36,000  Level FlightAware
06:12PM 25.2520 -81.1910 225° Southwest 449 517 36,000  Level FlightAware
06:13PM 25.1900 -81.2570 224° Southwest 455 524 36,000  Level FlightAware
06:14PM 25.1220 -81.3310 225° Southwest 453 521 36,000  Level FlightAware
06:14PM 25.0630 -81.3930 224° Southwest 451 519 36,000  Level FlightAware
06:15PM 24.9970 -81.4650 225° Southwest 444 511 36,000  Level FlightAware
06:16PM 24.9390 -81.5260 224° Southwest 454 522 36,000 -180 Level FlightAware
06:17PM 24.8760 -81.5930 224° Southwest 454 522 35,800 -600 Descending FlightAware
06:17PM 24.8150 -81.6580 224° Southwest 435 501 35,200 -1,020 Descending FlightAware
06:18PM 24.7590 -81.7180 224° Southwest 432 497 34,500 -900 Descending FlightAware
06:19PM 24.6990 -81.7820 224° Southwest 428 493 34,000 -720 Descending FlightAware
06:19PM 24.6350 -81.8500 224° Southwest 431 496 33,500 -660 Descending FlightAware
06:19PM 24.6210 -81.8640 222° Southwest 432 497 33,400 -780 Descending FlightAware
06:22PM 24.4440 -82.0520 224° Southwest 429 494 31,700 -960 Descending FlightAware
06:23PM 24.3500 -82.1520 224° Southwest 434 499 30,600 -1,800 Descending FlightAware
06:23PM 24.2760 -82.2290 223° Southwest 444 511 28,700 -1,620 Descending FlightAware
06:24PM 24.2250 -82.2830 224° Southwest 444 511 28,300 -180 Descending FlightAware
06:26PM 24.0960 -82.4200 224° Southwest 444 511 28,300  Level FlightAware
06:27PM 24.0330 -82.4860 224° Southwest 444 511 28,300  Level FlightAware
06:27PM 23.9880 -82.5340 224° Southwest 444 511 28,300  Level FlightAware
06:35PM 23.0989 -82.4098 170° South  Level FlightAware Approximate
06:36PM 22.9891 -82.4091 180° South  Level Estimated
06:37PM 22.9891 -82.4091 180° South  Level Estimated
06:38PM 22.9891 -82.4091 180° South  Level Estimated
06:39PM 22.9891 -82.4091 180° South  Level Estimated
06:40PM 22.9891 -82.4091 180° South  Level Estimated
06:41PM 22.9891 -82.4091 180° South  Level Estimated
06:42PM 22.9891 -82.4091 180° South  Level Estimated
06:43PM 22.9891 -82.4091 180° South  Level Estimated
06:44PM 22.9891 -82.4091 180° South  Level Estimated
06:45PM 22.9891 -82.4091 180° South  Level Estimated
06:46PM 22.9891 -82.4091 180° South  Level Estimated
06:47PM 22.9891 -82.4091 180° South  Level Estimated
06:48PM 22.9891 -82.4091 180° South  Level Estimated
06:49PM 22.9891 -82.4091 180° South  Level Estimated
06:50PM 22.9891 -82.4091 180° South  Level Estimated
06:51PM 22.9891 -82.4091 180° South  Level Estimated
06:52PM 22.9891 -82.4091 180° South  Level Estimated
06:53PM 22.9891 -82.4091 180° South  Level Estimated
06:54PM 22.9891 -82.4091 180° South  Level Estimated
06:55PM 22.9891 -82.4091 180° South  Level Estimated
06:56PM 22.9891 -82.4091 180° South  Level Estimated